Time;durP1;ratioP1;P1;durP2;ratioP2;P2;SDS_P1;SDS_P2;PMS_P1;PMS_P2;Temp;Humidity;BMP_temperature;BMP_pressure;BME280_temperature;BME280_humidity;BME280_pressure;Samples;Min_cycle;Max_cycle;Signal;HPM_P1;HPM_P2
2022/09/28 01:01:22;;;;;;;15.47;5.10;;;13.80;85.80;;;;;;4944595;28;20247;-96
2022/09/28 01:03:53;;;;;;;13.47;4.10;;;13.80;86.20;;;;;;4948922;28;20209;-96
2022/09/28 01:07:04;;;;;;;16.63;4.67;;;13.70;85.10;;;;;;5007092;28;20202;-96
2022/09/28 01:09:53;;;;;;;15.00;4.07;;;13.80;87.20;;;;;;5013542;28;20214;-96
2022/09/28 01:15:23;;;;;;;10.60;3.60;;;13.80;87.30;;;;;;5012543;28;20215;-96
2022/09/28 01:18:13;;;;;;;15.47;5.00;;;13.80;87.20;;;;;;5011672;28;20264;-96
2022/09/28 01:24:12;;;;;;;10.27;3.67;;;13.80;87.70;;;;;;5061295;22;20241;-96
2022/09/28 01:27:11;;;;;;;9.50;3.57;;;13.80;87.90;;;;;;5037849;28;20205;-96
2022/09/28 01:33:12;;;;;;;9.87;3.87;;;13.80;87.40;;;;;;5145815;22;20247;-96
2022/09/28 01:36:00;;;;;;;9.40;3.50;;;13.80;87.20;;;;;;5014400;28;20528;-96
2022/09/28 01:42:12;;;;;;;11.87;4.27;;;13.80;86.70;;;;;;5056008;22;20240;-96
2022/09/28 01:44:50;;;;;;;7.27;2.90;;;13.80;85.80;;;;;;5054180;28;20333;-96
2022/09/28 01:51:08;;;;;;;10.93;3.57;;;13.80;86.70;;;;;;5045276;28;20219;-96
2022/09/28 01:54:10;;;;;;;10.20;4.00;;;13.80;86.80;;;;;;5056497;28;20296;-96
2022/09/28 02:00:05;;;;;;;13.70;4.77;;;13.80;87.00;;;;;;5053687;28;20366;-96
2022/09/28 02:17:20;;;;;;;12.57;4.37;;;13.70;84.10;;;;;;5131508;22;20247;-96
2022/09/28 02:23:47;;;;;;;8.43;3.20;;;13.60;84.30;;;;;;5049229;28;20233;-96
2022/09/28 02:39:35;;;;;;;15.60;5.27;;;13.50;83.50;;;;;;5671494;22;20253;-96
2022/09/28 02:52:38;;;;;;;8.90;3.37;;;13.40;82.90;;;;;;5051161;28;20253;-96
2022/09/28 03:01:59;;;;;;;14.33;4.63;;;13.30;82.70;;;;;;5163699;22;20262;-96
2022/09/28 03:08:30;;;;;;;11.80;3.83;;;13.20;83.10;;;;;;5140924;22;20254;-96
2022/09/28 03:11:17;;;;;;;7.63;3.10;;;13.20;83.30;;;;;;5004489;28;20236;-96
2022/09/28 03:14:38;;;;;;;7.83;3.00;;;13.20;83.50;;;;;;5009942;28;20198;-96
2022/09/28 03:17:31;;;;;;;14.50;4.03;;;13.10;83.90;;;;;;5006574;28;20641;-96
2022/09/28 03:20:43;;;;;;;10.90;3.83;;;13.10;84.00;;;;;;5006386;28;20235;-96
2022/09/28 03:24:04;;;;;;;8.63;3.33;;;13.10;84.00;;;;;;5003986;28;20208;-96
2022/09/28 03:33:04;;;;;;;11.60;4.00;;;13.00;83.60;;;;;;5098107;22;20246;-96
2022/09/28 03:36:09;;;;;;;;;;;;;;;;;;;;;
2022/09/28 03:51:42;;;;;;;11.97;4.87;;;12.80;82.80;;;;;;5054617;23;20733;-96
2022/09/28 04:13:49;;;;;;;48.20;14.37;;;12.60;85.20;;;;;;5019126;23;20317;-96
2022/09/28 04:19:58;;;;;;;11.97;4.87;;;12.50;85.00;;;;;;5049700;23;20234;-96
2022/09/28 05:24:12;;;;;;;10.53;4.50;;;12.30;85.40;;;;;;4967875;29;20230;-96
2022/09/28 05:26:39;;;;;;;14.10;4.80;;;12.30;85.00;;;;;;4953223;29;20274;-94
2022/09/28 05:29:08;;;;;;;15.57;5.90;;;12.30;84.30;;;;;;4951025;29;20201;-94
2022/09/28 05:31:35;;;;;;;15.40;6.20;;;12.30;84.90;;;;;;4967375;28;20247;-93
2022/09/28 05:34:05;;;;;;;13.03;4.87;;;12.30;84.90;;;;;;4973522;28;20203;-96
2022/09/28 05:36:34;;;;;;;10.83;4.83;;;12.30;85.50;;;;;;4971414;28;20263;-94
2022/09/28 05:39:03;;;;;;;12.90;4.90;;;12.20;85.10;;;;;;4971924;28;20235;-95
2022/09/28 05:44:46;;;;;;;10.90;4.73;;;12.20;85.40;;;;;;4970374;28;20207;-94
2022/09/28 05:47:14;;;;;;;12.27;5.00;;;12.20;84.00;;;;;;4958929;28;20225;-94
2022/09/28 05:49:42;;;;;;;16.10;5.83;;;12.20;84.00;;;;;;4973828;28;20269;-96
2022/09/28 05:52:09;;;;;;;10.20;4.20;;;12.20;84.30;;;;;;4973291;28;20214;-94
2022/09/28 05:54:51;;;;;;;8.90;3.97;;;12.10;84.40;;;;;;4973384;28;20203;-93
2022/09/28 05:57:18;;;;;;;9.47;4.30;;;12.10;85.50;;;;;;4974287;28;20263;-94
2022/09/28 05:59:51;;;;;;;9.23;4.70;;;12.10;85.40;;;;;;4974181;28;20230;-94
2022/09/28 06:05:14;;;;;;;10.90;4.73;;;12.10;84.70;;;;;;4945000;28;20310;-94
2022/09/28 06:07:42;;;;;;;12.63;5.47;;;12.00;84.50;;;;;;4971271;28;20208;-94
2022/09/28 06:10:13;;;;;;;16.17;5.80;;;12.00;85.40;;;;;;4974841;28;20215;-94
2022/09/28 06:12:42;;;;;;;14.43;6.03;;;12.00;86.30;;;;;;4974370;28;20250;-93
2022/09/28 06:15:10;;;;;;;15.27;6.07;;;12.00;86.20;;;;;;4968887;28;20671;-95
2022/09/28 06:17:37;;;;;;;9.17;4.50;;;12.00;86.10;;;;;;4966106;28;20230;-93
2022/09/28 06:23:27;;;;;;;9.93;4.60;;;12.00;87.20;;;;;;4926719;28;20203;-96
2022/09/28 06:29:04;;;;;;;15.97;6.33;;;12.00;88.40;;;;;;5013028;23;20219;-94
2022/09/28 06:31:31;;;;;;;11.30;4.90;;;12.10;88.40;;;;;;4987959;28;20246;-95
2022/09/28 06:33:59;;;;;;;18.77;6.97;;;12.10;88.70;;;;;;4964146;28;20208;-94
2022/09/28 06:36:36;;;;;;;16.80;6.40;;;12.10;89.80;;;;;;4981241;28;20207;-95
2022/09/28 06:39:04;;;;;;;12.60;5.83;;;12.10;90.50;;;;;;4977225;28;20230;-94
2022/09/28 06:41:31;;;;;;;14.87;5.67;;;12.10;90.20;;;;;;4977787;28;20583;-95
2022/09/28 06:43:58;;;;;;;14.77;6.10;;;12.20;90.20;;;;;;4984072;28;20232;-95
2022/09/28 06:46:58;;;;;;;19.03;6.40;;;12.20;90.00;;;;;;4971676;28;20211;-95
2022/09/28 06:49:29;;;;;;;17.83;5.93;;;12.20;90.50;;;;;;4955252;28;20239;-96
2022/09/28 06:52:02;;;;;;;13.50;5.70;;;12.30;90.10;;;;;;4965470;28;20234;-95
2022/09/28 06:54:29;;;;;;;16.60;6.03;;;12.30;90.10;;;;;;4969503;28;20983;-95
2022/09/28 06:57:02;;;;;;;13.00;6.10;;;12.30;89.50;;;;;;4973862;28;20208;-96
2022/09/28 06:59:49;;;;;;;16.80;6.37;;;12.30;90.00;;;;;;4974221;28;20706;-95
2022/09/28 07:02:18;;;;;;;11.67;5.27;;;12.30;90.00;;;;;;4970853;28;20214;-96
2022/09/28 07:04:48;;;;;;;22.07;7.57;;;12.40;89.70;;;;;;4973858;28;20247;-96
2022/09/28 07:07:18;;;;;;;19.07;6.43;;;12.40;90.10;;;;;;4973662;28;20270;-94
2022/09/28 07:09:48;;;;;;;16.23;6.33;;;12.40;90.10;;;;;;4975883;28;20203;-95
2022/09/28 07:12:18;;;;;;;12.13;5.50;;;12.40;90.20;;;;;;4973470;28;20211;-95
2022/09/28 07:14:48;;;;;;;13.27;5.47;;;12.40;90.30;;;;;;4966457;28;20192;-94
2022/09/28 07:23:41;;;;;;;17.00;6.17;;;12.40;90.70;;;;;;4962335;28;20712;-96
2022/09/28 07:26:10;;;;;;;9.83;5.00;;;12.50;90.40;;;;;;5002654;28;20229;-96
2022/09/28 07:28:43;;;;;;;8.70;4.60;;;12.50;90.50;;;;;;5013696;28;20206;-96
2022/09/28 07:31:12;;;;;;;14.20;5.53;;;12.50;90.90;;;;;;5012666;28;20225;-95
2022/09/28 07:33:46;;;;;;;14.50;6.50;;;12.50;90.60;;;;;;5012741;28;20261;-96
2022/09/28 07:36:16;;;;;;;11.57;4.97;;;12.60;91.00;;;;;;5017289;28;20295;-96
2022/09/28 07:39:06;;;;;;;13.70;5.17;;;12.60;90.60;;;;;;5030760;28;20226;-96
2022/09/28 07:41:35;;;;;;;8.17;4.67;;;12.70;91.40;;;;;;5016729;28;20265;-96
2022/09/28 07:44:05;;;;;;;9.57;5.03;;;12.70;91.10;;;;;;5017175;28;20209;-96
2022/09/28 07:46:39;;;;;;;11.57;5.13;;;12.80;91.30;;;;;;5020415;28;20316;-96
2022/09/28 07:49:12;;;;;;;14.40;5.73;;;12.80;91.40;;;;;;5036219;28;20208;-96
2022/09/28 07:51:43;;;;;;;15.87;5.87;;;12.90;91.60;;;;;;5020899;28;20609;-96
2022/09/28 07:54:40;;;;;;;11.20;5.03;;;12.90;91.50;;;;;;5031448;28;20205;-96
2022/09/28 08:00:16;;;;;;;8.77;4.57;;;13.00;91.70;;;;;;5002862;28;20221;-96
2022/09/28 08:02:43;;;;;;;14.23;5.37;;;13.10;92.30;;;;;;5007643;28;20213;-96
2022/09/28 08:07:41;;;;;;;10.90;5.00;;;13.30;92.90;;;;;;5226880;23;20238;-96
2022/09/28 08:10:12;;;;;;;15.60;5.73;;;13.30;92.70;;;;;;5001305;28;20573;-96
2022/09/28 08:12:41;;;;;;;9.63;5.10;;;13.40;93.20;;;;;;4999480;28;20209;-96
2022/09/28 08:15:10;;;;;;;17.57;6.17;;;13.40;93.10;;;;;;4999346;28;20220;-95
2022/09/28 08:17:39;;;;;;;10.10;4.50;;;13.60;92.80;;;;;;4990449;28;20204;-96
2022/09/28 08:25:59;;;;;;;23.90;7.47;;;13.80;93.40;;;;;;5003330;28;20206;-95
2022/09/28 08:28:29;;;;;;;17.20;6.13;;;13.90;93.40;;;;;;5002005;28;20280;-95
2022/09/28 08:31:32;;;;;;;13.40;5.67;;;14.00;93.70;;;;;;5013372;28;20226;-95
2022/09/28 08:37:18;;;;;;;14.20;5.53;;;14.30;94.20;;;;;;4944744;28;20215;-95
2022/09/28 08:39:48;;;;;;;10.07;3.37;;;14.40;94.60;;;;;;5002905;28;20239;-95
2022/09/28 08:42:43;;;;;;;12.43;3.90;;;14.70;93.00;;;;;;5015855;28;20273;-96
2022/09/28 08:45:14;;;;;;;12.00;3.50;;;14.90;92.50;;;;;;5018752;28;20207;-96
2022/09/28 08:51:20;;;;;;;15.90;4.57;;;15.40;88.50;;;;;;5015588;28;20193;-95
2022/09/28 08:54:09;;;;;;;14.47;4.33;;;15.70;90.10;;;;;;5002716;28;20230;-95
2022/09/28 08:56:52;;;;;;;14.70;4.03;;;16.10;90.60;;;;;;5013296;28;20212;-95
2022/09/28 08:59:27;;;;;;;10.03;2.83;;;16.30;86.70;;;;;;5016658;28;20213;-96
2022/09/28 09:02:55;;;;;;;12.17;3.40;;;16.60;84.80;;;;;;5011839;28;20202;-95
2022/09/28 09:06:01;;;;;;;14.33;4.00;;;16.80;85.60;;;;;;5007752;28;20309;-96
2022/09/28 09:09:01;;;;;;;9.40;2.90;;;17.10;79.30;;;;;;5008034;28;20243;-95
2022/09/28 09:12:26;;;;;;;10.50;3.27;;;17.40;76.60;;;;;;5003958;28;20306;-96
2022/09/28 09:18:30;;;;;;;20.80;4.97;;;17.60;76.70;;;;;;4979154;28;20700;-95
2022/09/28 09:21:44;;;;;;;9.10;2.80;;;17.70;75.00;;;;;;5017011;28;20229;-96
2022/09/28 09:24:28;;;;;;;8.33;2.87;;;17.80;76.20;;;;;;5015709;28;20719;-96
2022/09/28 09:30:25;;;;;;;44.17;14.33;;;17.90;74.10;;;;;;5007267;23;20216;-96
2022/09/28 09:33:27;;;;;;;9.73;3.33;;;18.10;74.80;;;;;;5000765;28;20342;-94
2022/09/28 09:36:22;;;;;;;11.33;3.30;;;18.20;70.90;;;;;;4982093;28;20206;-96
2022/09/28 09:39:07;;;;;;;7.90;3.00;;;18.30;70.20;;;;;;4982168;28;20229;-95
2022/09/28 09:42:04;;;;;;;8.37;2.53;;;18.30;70.70;;;;;;5181742;23;20557;-96
2022/09/28 09:47:52;;;;;;;8.77;2.87;;;18.40;69.10;;;;;;5031950;23;20235;-96
2022/09/28 09:50:57;;;;;;;19.73;5.90;;;18.30;68.70;;;;;;5013614;28;20207;-96
2022/09/28 09:57:54;;;;;;;7.33;2.63;;;18.50;70.00;;;;;;4938492;29;20219;-96
2022/09/28 10:00:29;;;;;;;6.73;1.97;;;18.60;67.70;;;;;;4883398;29;20290;-95
2022/09/28 10:03:47;;;;;;;6.40;2.40;;;18.70;70.00;;;;;;4932204;29;20299;-95
2022/09/28 10:06:33;;;;;;;8.67;3.13;;;18.80;71.20;;;;;;4919426;29;20209;-94
2022/09/28 10:09:09;;;;;;;4.70;1.80;;;19.00;70.60;;;;;;4935590;29;20212;-95
2022/09/28 10:11:48;;;;;;;8.10;2.37;;;19.20;71.70;;;;;;4939176;29;20222;-95
2022/09/28 10:17:26;;;;;;;7.10;2.57;;;19.60;69.10;;;;;;4931966;23;20619;-94
2022/09/28 10:19:55;;;;;;;5.10;1.90;;;19.80;67.90;;;;;;5009921;28;20302;-95
2022/09/28 10:23:15;;;;;;;4.73;1.93;;;20.00;69.80;;;;;;4998414;28;20638;-95
2022/09/28 10:26:04;;;;;;;5.90;2.23;;;20.10;65.90;;;;;;5006726;28;20245;-95
2022/09/28 10:28:45;;;;;;;7.73;2.00;;;20.40;65.60;;;;;;5009310;28;20206;-95
2022/09/28 10:31:37;;;;;;;5.07;1.73;;;20.50;64.00;;;;;;4997195;28;20206;-95
2022/09/28 10:34:24;;;;;;;;;;;;;;;;;;;;;
2022/09/28 10:37:36;;;;;;;6.00;2.20;;;20.80;66.60;;;;;;4994450;28;20193;-96
2022/09/28 10:40:40;;;;;;;5.67;1.73;;;20.90;62.50;;;;;;4981815;28;20229;-95
2022/09/28 10:43:22;;;;;;;5.93;1.87;;;21.10;60.60;;;;;;4997802;28;21067;-96
2022/09/28 10:46:31;;;;;;;5.60;1.37;;;21.20;60.90;;;;;;4995498;28;20203;-96
2022/09/28 10:49:55;;;;;;;5.43;1.93;;;21.30;60.40;;;;;;4996782;28;20213;-96
2022/09/28 10:52:34;;;;;;;9.70;3.30;;;21.40;60.30;;;;;;5012098;23;20235;-95
2022/09/28 10:55:25;;;;;;;6.43;2.30;;;21.40;60.10;;;;;;5036619;28;20208;-96
2022/09/28 10:58:40;;;;;;;8.20;2.87;;;21.40;60.40;;;;;;5038130;28;20202;-96
2022/09/28 11:01:18;;;;;;;5.07;2.07;;;21.40;59.00;;;;;;5037426;28;20224;-94
2022/09/28 11:03:57;;;;;;;6.80;2.27;;;21.30;59.60;;;;;;5035218;28;20268;-94
2022/09/28 11:06:33;;;;;;;6.50;1.53;;;21.30;58.50;;;;;;5036198;28;20203;-96
2022/09/28 11:09:26;;;;;;;4.47;1.63;;;21.30;58.20;;;;;;5046038;28;20200;-95
2022/09/28 11:12:00;;;;;;;4.13;1.23;;;21.20;58.80;;;;;;5045659;28;20205;-96
2022/09/28 11:20:34;;;;;;;3.77;1.67;;;21.30;58.50;;;;;;5009283;28;20301;-96
2022/09/28 11:23:19;;;;;;;4.30;1.40;;;21.30;58.70;;;;;;5006388;28;20391;-94
2022/09/28 11:25:58;;;;;;;10.03;3.47;;;21.30;58.60;;;;;;4999389;28;20281;-96
2022/09/28 11:28:43;;;;;;;11.40;4.00;;;21.30;58.90;;;;;;4984039;28;20226;-95
2022/09/28 11:31:16;;;;;;;5.43;2.17;;;21.30;58.20;;;;;;5005580;28;20232;-94
2022/09/28 11:33:51;;;;;;;5.67;1.90;;;21.30;58.90;;;;;;4992314;28;20226;-94
2022/09/28 11:36:46;;;;;;;5.03;1.43;;;21.20;58.60;;;;;;5005411;28;20264;-94
2022/09/28 11:39:32;;;;;;;5.97;1.87;;;21.20;57.70;;;;;;5007514;28;20268;-95
2022/09/28 11:42:33;;;;;;;3.93;1.63;;;21.20;58.80;;;;;;5003405;28;20225;-94
2022/09/28 11:48:30;;;;;;;3.50;1.50;;;21.20;58.40;;;;;;5039925;23;20246;-96
2022/09/28 11:51:12;;;;;;;6.40;2.20;;;21.30;58.20;;;;;;5017320;28;20213;-95
2022/09/28 11:53:43;;;;;;;7.80;2.43;;;21.30;58.20;;;;;;5010602;28;20212;-93
2022/09/28 11:56:31;;;;;;;4.20;1.67;;;21.40;57.70;;;;;;5009018;28;20205;-94
2022/09/28 11:59:04;;;;;;;6.77;2.13;;;21.40;56.80;;;;;;5013077;28;20213;-91
2022/09/28 12:01:47;;;;;;;5.23;1.83;;;21.40;57.70;;;;;;5009012;28;20229;-96
2022/09/28 12:04:41;;;;;;;5.37;1.50;;;21.40;56.30;;;;;;4999142;28;20202;-93
2022/09/28 12:07:25;;;;;;;4.97;1.47;;;21.30;55.30;;;;;;5000648;28;20229;-93
2022/09/28 12:09:58;;;;;;;5.47;1.53;;;21.30;54.50;;;;;;4997079;28;20285;-92
2022/09/28 12:12:40;;;;;;;3.00;1.03;;;21.30;56.60;;;;;;5008471;28;20190;-95
2022/09/28 12:15:17;;;;;;;5.67;2.20;;;21.30;56.50;;;;;;5018488;28;20292;-95
2022/09/28 12:17:48;;;;;;;3.77;1.77;;;21.30;56.10;;;;;;5020252;28;20209;-95
2022/09/28 12:20:39;;;;;;;7.80;2.73;;;21.20;56.60;;;;;;5023828;28;20226;-95
2022/09/28 12:23:25;;;;;;;7.20;2.50;;;21.20;56.50;;;;;;5002791;28;20598;-92
2022/09/28 12:26:02;;;;;;;5.30;2.07;;;21.20;55.20;;;;;;5001653;28;20237;-94
2022/09/28 12:28:35;;;;;;;7.03;1.63;;;21.20;56.10;;;;;;4997230;28;20230;-95
2022/09/28 12:31:26;;;;;;;7.33;2.90;;;21.20;56.50;;;;;;4984709;28;20213;-92
2022/09/28 12:34:02;;;;;;;9.00;3.30;;;21.10;55.00;;;;;;4994052;28;20605;-95
2022/09/28 12:36:44;;;;;;;7.30;2.30;;;21.10;56.00;;;;;;4990674;28;20202;-91
2022/09/28 12:39:33;;;;;;;5.83;1.77;;;21.00;55.30;;;;;;4983204;28;20225;-95
2022/09/28 12:42:15;;;;;;;9.30;3.73;;;20.90;56.00;;;;;;4980075;28;20753;-93
2022/09/28 12:44:57;;;;;;;8.63;3.10;;;20.90;55.90;;;;;;5002369;28;20198;-96
2022/09/28 12:51:18;;;;;;;10.57;3.37;;;20.80;55.70;;;;;;4987240;28;20217;-95
2022/09/28 12:54:11;;;;;;;8.13;3.07;;;20.70;55.70;;;;;;4981864;28;20207;-94
2022/09/28 12:57:26;;;;;;;6.53;2.37;;;20.60;56.10;;;;;;4987068;28;20273;-94
2022/09/28 13:06:43;;;;;;;8.47;2.63;;;20.40;56.60;;;;;;4941360;29;20298;-95
2022/09/28 13:09:24;;;;;;;7.43;2.70;;;20.40;56.50;;;;;;4940986;29;20272;-91
2022/09/28 13:12:24;;;;;;;11.83;3.50;;;20.40;56.30;;;;;;4943393;29;20209;-94
2022/09/28 13:18:22;;;;;;;10.93;3.03;;;20.20;55.80;;;;;;4940827;29;20435;-94
2022/09/28 13:21:10;;;;;;;9.30;3.23;;;20.10;56.40;;;;;;4940263;29;20269;-93
2022/09/28 13:23:42;;;;;;;7.87;3.00;;;20.10;55.80;;;;;;4995702;28;20266;-93
2022/09/28 13:26:19;;;;;;;9.57;3.50;;;19.90;55.80;;;;;;5002798;28;20217;-91
2022/09/28 13:29:03;;;;;;;7.30;2.80;;;19.80;56.20;;;;;;5000839;28;20240;-93
2022/09/28 13:31:32;;;;;;;9.73;3.47;;;19.70;56.50;;;;;;5002973;28;20651;-95
2022/09/28 13:34:04;;;;;;;8.17;2.87;;;19.70;56.90;;;;;;4994614;28;20211;-95
2022/09/28 13:36:39;;;;;;;6.80;2.57;;;19.60;56.60;;;;;;4993887;28;20201;-93
2022/09/28 13:39:37;;;;;;;9.73;3.27;;;19.60;56.50;;;;;;5004462;28;20235;-94
2022/09/28 13:42:28;;;;;;;10.50;3.30;;;19.60;56.00;;;;;;5003917;28;20245;-94
2022/09/28 13:45:15;;;;;;;14.50;4.33;;;19.50;56.50;;;;;;5001570;28;20198;-94
2022/09/28 13:48:05;;;;;;;8.97;3.17;;;19.40;55.70;;;;;;4980688;28;20272;-94
2022/09/28 13:51:00;;;;;;;9.47;3.50;;;19.40;56.20;;;;;;4976265;28;20216;-94
2022/09/28 13:53:37;;;;;;;11.63;4.23;;;19.30;56.70;;;;;;4981177;28;20210;-92
2022/09/28 13:56:25;;;;;;;10.30;3.60;;;19.30;57.00;;;;;;4997738;28;20237;-94
2022/09/28 13:58:58;;;;;;;9.33;3.00;;;19.20;57.10;;;;;;4993874;28;20213;-95
2022/09/28 14:01:37;;;;;;;8.17;3.00;;;19.20;57.20;;;;;;4995358;28;20234;-94
2022/09/28 14:04:16;;;;;;;15.33;4.37;;;19.30;57.30;;;;;;4985910;28;20586;-95
2022/09/28 14:06:51;;;;;;;9.60;3.37;;;19.30;57.40;;;;;;4992646;28;20209;-95
2022/09/28 14:10:06;;;;;;;10.57;3.37;;;19.30;57.30;;;;;;4992160;28;20287;-95
2022/09/28 14:12:48;;;;;;;15.57;5.23;;;19.40;57.10;;;;;;4975716;28;20209;-94
2022/09/28 14:15:40;;;;;;;12.60;4.03;;;19.40;56.60;;;;;;4990886;28;20299;-94
2022/09/28 14:18:28;;;;;;;11.60;3.87;;;19.40;56.60;;;;;;4991162;28;20213;-93
2022/09/28 14:21:45;;;;;;;9.33;3.30;;;19.30;56.70;;;;;;4990651;28;20234;-91
2022/09/28 14:24:22;;;;;;;5.90;2.20;;;19.40;56.80;;;;;;4946314;28;20204;-95
2022/09/28 14:27:10;;;;;;;10.53;3.50;;;19.40;57.30;;;;;;4967410;28;20237;-93
2022/09/28 14:29:40;;;;;;;9.80;3.60;;;19.40;57.10;;;;;;4991282;28;20225;-92
2022/09/28 14:32:28;;;;;;;9.97;3.17;;;19.30;57.30;;;;;;4999649;28;20694;-93
2022/09/28 14:35:06;;;;;;;7.33;3.00;;;19.40;56.70;;;;;;4991282;28;20195;-93
2022/09/28 14:41:12;;;;;;;6.03;2.17;;;19.40;56.90;;;;;;5008400;28;20189;-95
2022/09/28 14:44:09;;;;;;;5.50;2.03;;;19.40;56.70;;;;;;4993420;28;20224;-93
2022/09/28 14:46:45;;;;;;;8.00;2.03;;;19.40;56.50;;;;;;5002554;28;20247;-92
2022/09/28 14:49:50;;;;;;;7.07;2.63;;;19.40;56.70;;;;;;5009554;28;20214;-91
2022/09/28 14:52:50;;;;;;;7.10;2.67;;;19.40;56.70;;;;;;4997150;28;20225;-93
2022/09/28 14:55:31;;;;;;;7.03;1.80;;;19.40;56.30;;;;;;4993334;28;20208;-94
2022/09/28 14:58:03;;;;;;;6.70;2.43;;;19.40;56.10;;;;;;4985810;28;20207;-90
2022/09/28 15:00:33;;;;;;;7.87;2.50;;;19.40;56.90;;;;;;4999699;28;20207;-90
2022/09/28 15:03:05;;;;;;;6.33;1.90;;;19.40;56.80;;;;;;5007751;28;20254;-93
2022/09/28 15:05:38;;;;;;;5.33;2.00;;;19.40;56.90;;;;;;4996766;28;20218;-93
2022/09/28 15:08:11;;;;;;;5.00;1.90;;;19.40;57.10;;;;;;5008038;28;20229;-93
2022/09/28 15:10:44;;;;;;;6.47;2.33;;;19.40;57.10;;;;;;4998218;28;20293;-91
2022/09/28 15:13:24;;;;;;;4.33;1.70;;;19.50;57.00;;;;;;4994902;28;20202;-90
2022/09/28 15:15:59;;;;;;;4.27;1.30;;;19.50;56.40;;;;;;5006680;28;20229;-94
2022/09/28 15:19:10;;;;;;;4.67;1.83;;;19.50;56.60;;;;;;5015682;28;20189;-94
2022/09/28 15:21:42;;;;;;;8.47;2.30;;;19.50;55.90;;;;;;5016202;23;20308;-92
2022/09/28 15:24:31;;;;;;;10.70;3.63;;;19.50;56.80;;;;;;5014092;28;20199;-92
2022/09/28 15:27:15;;;;;;;9.80;3.40;;;19.60;56.40;;;;;;5000831;28;20909;-90
2022/09/28 15:29:55;;;;;;;4.07;1.43;;;19.60;56.30;;;;;;4976032;28;20267;-93
2022/09/28 15:32:36;;;;;;;6.23;2.23;;;19.60;56.40;;;;;;4969091;28;20205;-91
2022/09/28 15:35:19;;;;;;;4.47;1.47;;;19.50;56.00;;;;;;4961155;28;20591;-90
2022/09/28 15:37:50;;;;;;;11.13;3.93;;;19.50;56.30;;;;;;4989607;28;20293;-90
2022/09/28 15:40:30;;;;;;;6.10;2.40;;;19.50;56.70;;;;;;4978303;28;20206;-93
2022/09/28 15:42:58;;;;;;;9.93;3.27;;;19.50;56.10;;;;;;4974761;28;20720;-89
2022/09/28 15:45:31;;;;;;;8.83;2.93;;;19.40;56.30;;;;;;4967434;28;20297;-91
2022/09/28 15:48:19;;;;;;;7.97;2.40;;;19.30;56.00;;;;;;4974106;28;20206;-89
2022/09/28 15:50:59;;;;;;;6.70;2.03;;;19.20;56.00;;;;;;4972051;28;20651;-90
2022/09/28 15:53:27;;;;;;;8.30;3.03;;;19.10;56.30;;;;;;4963502;28;20203;-92
2022/09/28 15:56:02;;;;;;;6.10;2.10;;;19.10;56.60;;;;;;4977202;28;20710;-90
2022/09/28 15:58:41;;;;;;;7.87;2.73;;;19.00;56.60;;;;;;4983187;28;20242;-92
2022/09/28 16:01:34;;;;;;;6.73;2.50;;;19.00;56.90;;;;;;4971306;28;20213;-92
2022/09/28 16:07:40;;;;;;;6.73;2.67;;;18.80;57.10;;;;;;4974176;28;20611;-92
2022/09/28 16:10:32;;;;;;;11.13;3.70;;;18.70;56.90;;;;;;4963930;28;20219;-92
2022/09/28 16:13:33;;;;;;;6.73;2.30;;;18.60;57.00;;;;;;4976352;28;20228;-93
2022/09/28 16:16:01;;;;;;;7.70;2.53;;;18.60;57.30;;;;;;4996313;28;20193;-92
2022/09/28 16:18:32;;;;;;;7.20;2.50;;;18.50;57.90;;;;;;4978985;28;20209;-91
2022/09/28 16:21:27;;;;;;;7.93;3.07;;;18.50;57.60;;;;;;4972356;28;20307;-92
2022/09/28 16:23:57;;;;;;;5.33;2.20;;;18.40;57.80;;;;;;4964824;28;20218;-92
2022/09/28 16:26:42;;;;;;;1.93;1.20;;;18.40;57.80;;;;;;4978497;28;20223;-90
2022/09/28 16:29:26;;;;;;;6.77;2.53;;;18.30;58.00;;;;;;4972554;28;20319;-90
2022/09/28 16:31:54;;;;;;;5.33;2.13;;;18.30;58.00;;;;;;4974929;28;21052;-89
2022/09/28 16:34:25;;;;;;;6.87;2.40;;;18.30;58.30;;;;;;4974362;28;20256;-90
2022/09/28 16:36:54;;;;;;;6.40;2.17;;;18.20;58.20;;;;;;4975452;28;20213;-92
2022/09/28 16:39:22;;;;;;;9.20;3.20;;;18.20;58.20;;;;;;4967844;28;20691;-93
2022/09/28 16:41:55;;;;;;;6.87;1.90;;;18.10;58.30;;;;;;4967302;28;20323;-90
2022/09/28 16:44:28;;;;;;;5.30;2.20;;;18.10;58.50;;;;;;4985689;28;20249;-91
2022/09/28 16:46:59;;;;;;;4.07;1.90;;;18.00;58.40;;;;;;4975615;28;20239;-92
2022/09/28 16:49:27;;;;;;;7.73;2.83;;;18.00;58.50;;;;;;4965720;28;20216;-89
2022/09/28 16:55:13;;;;;;;5.80;2.47;;;17.90;58.50;;;;;;4973660;28;20207;-91
2022/09/28 16:57:49;;;;;;;9.73;3.17;;;17.90;58.50;;;;;;4979167;28;20194;-88
2022/09/28 17:00:46;;;;;;;7.30;2.83;;;17.80;58.60;;;;;;4979968;28;20209;-89
2022/09/28 17:03:16;;;;;;;9.40;3.37;;;17.70;58.80;;;;;;4973330;28;20237;-91
2022/09/28 17:05:44;;;;;;;6.10;2.30;;;17.70;58.80;;;;;;4971657;28;20212;-91
2022/09/28 17:08:16;;;;;;;7.00;2.73;;;17.50;58.90;;;;;;4973470;28;20258;-91
2022/09/28 17:10:51;;;;;;;11.27;3.57;;;17.50;59.00;;;;;;4975233;28;20210;-90
2022/09/28 17:13:19;;;;;;;8.17;3.10;;;17.50;59.10;;;;;;4971657;28;20768;-92
2022/09/28 17:16:00;;;;;;;6.60;2.70;;;17.50;59.40;;;;;;4962695;28;20258;-91
2022/09/28 17:18:30;;;;;;;7.73;3.03;;;17.40;59.40;;;;;;4965631;28;20278;-91
2022/09/28 17:21:10;;;;;;;8.17;3.30;;;17.40;59.30;;;;;;4982569;28;20216;-90
2022/09/28 17:23:40;;;;;;;7.40;3.07;;;17.40;59.60;;;;;;4977154;28;20609;-90
2022/09/28 17:26:30;;;;;;;8.10;3.30;;;17.30;59.80;;;;;;4972180;28;20203;-92
2022/09/28 17:29:01;;;;;;;4.63;2.40;;;17.30;60.20;;;;;;4964490;28;20228;-91
2022/09/28 17:31:30;;;;;;;10.27;4.27;;;17.30;60.00;;;;;;4961452;28;20614;-91
2022/09/28 17:33:59;;;;;;;7.60;3.00;;;17.20;59.90;;;;;;4971130;28;20284;-90
2022/09/28 17:36:33;;;;;;;7.40;2.97;;;17.20;59.90;;;;;;4972135;28;20213;-91
2022/09/28 17:39:13;;;;;;;7.63;3.20;;;17.20;60.10;;;;;;4995827;28;20194;-91
2022/09/28 17:41:51;;;;;;;7.63;3.80;;;17.10;60.00;;;;;;4970407;28;20286;-91
2022/09/28 17:44:29;;;;;;;5.23;3.00;;;17.10;60.00;;;;;;4974615;28;20222;-91
2022/09/28 17:47:12;;;;;;;10.53;4.33;;;17.10;60.20;;;;;;4986754;28;20234;-92
2022/09/28 17:49:50;;;;;;;8.23;3.70;;;17.00;60.20;;;;;;4979778;28;20198;-90
2022/09/28 17:52:19;;;;;;;7.77;3.90;;;16.90;60.10;;;;;;4975457;28;20204;-90
